createdAt,value
2018-08-18T00:01:52.904Z,99.90
2018-08-18T00:05:56.091Z,99.90
2018-08-18T00:09:59.053Z,99.90
2018-08-18T00:14:01.879Z,99.90
2018-08-18T00:18:04.650Z,99.90
2018-08-18T00:22:07.375Z,99.90
2018-08-18T00:26:10.156Z,99.90
2018-08-18T00:30:18.720Z,99.90
2018-08-18T00:34:21.497Z,99.90
2018-08-18T00:38:24.285Z,99.90
2018-08-18T00:42:27.056Z,99.90
2018-08-18T00:46:31.212Z,99.90
2018-08-18T00:50:43.202Z,99.90
2018-08-18T00:54:46.025Z,99.90
2018-08-18T00:58:50.931Z,99.90
2018-08-18T01:02:53.971Z,99.90
2018-08-18T01:06:56.944Z,99.90
2018-08-18T01:10:59.842Z,99.90
2018-08-18T01:15:02.749Z,99.90
2018-08-18T01:19:05.519Z,99.90
2018-08-18T01:23:08.324Z,99.90
2018-08-18T01:27:11.163Z,99.90
2018-08-18T01:31:19.677Z,99.90
2018-08-18T01:35:22.384Z,99.90
2018-08-18T01:39:25.100Z,99.90
2018-08-18T01:43:27.697Z,99.90
2018-08-18T01:47:30.389Z,99.90
2018-08-18T01:51:33.073Z,99.90
2018-08-18T01:55:35.769Z,99.90
2018-08-18T01:59:40.701Z,99.90
2018-08-18T02:03:43.348Z,99.90
2018-08-18T02:07:46.126Z,99.90
2018-08-18T02:11:52.633Z,99.90
2018-08-18T02:15:55.527Z,99.90
2018-08-18T02:19:58.684Z,99.90
2018-08-18T02:24:02.592Z,99.90
2018-08-18T02:28:06.475Z,99.90
2018-08-18T02:32:26.710Z,99.90
2018-08-18T02:36:29.495Z,99.90
2018-08-18T02:40:32.234Z,99.90
2018-08-18T02:44:35.001Z,99.90
2018-08-18T02:48:37.743Z,99.90
2018-08-18T02:52:40.559Z,99.90
2018-08-18T02:56:43.863Z,99.90
2018-08-18T03:00:46.561Z,99.90
2018-08-18T03:04:49.253Z,99.90
2018-08-18T03:08:52.014Z,99.90
2018-08-18T03:12:58.350Z,99.90
2018-08-18T03:17:01.305Z,99.90
2018-08-18T03:21:04.174Z,99.90
2018-08-18T03:25:07.015Z,99.90
2018-08-18T03:29:10.287Z,99.90
2018-08-18T03:33:12.998Z,99.90
2018-08-18T03:37:25.625Z,99.90
2018-08-18T03:41:29.064Z,99.90
2018-08-18T03:45:31.745Z,99.90
2018-08-18T03:49:34.436Z,99.90
2018-08-18T03:53:37.082Z,99.90
2018-08-18T03:57:46.408Z,99.90
2018-08-18T04:01:52.283Z,99.90
2018-08-18T04:05:55.022Z,99.90
2018-08-18T04:10:02.387Z,99.90
2018-08-18T04:14:05.055Z,99.90
2018-08-18T04:18:12.065Z,99.90
2018-08-18T04:22:15.096Z,99.90
2018-08-18T04:26:17.724Z,99.90
2018-08-18T04:30:21.349Z,99.90
2018-08-18T04:34:23.988Z,99.90
2018-08-18T04:38:26.694Z,99.90
2018-08-18T04:42:29.350Z,99.90
2018-08-18T04:46:32.019Z,99.90
2018-08-18T04:50:34.745Z,99.90
2018-08-18T04:54:37.311Z,99.90
2018-08-18T04:58:40.188Z,99.90
2018-08-18T05:02:59.161Z,99.90
2018-08-18T05:07:01.905Z,99.90
2018-08-18T05:11:04.865Z,99.90
2018-08-18T05:15:07.759Z,99.90
2018-08-18T05:19:10.614Z,99.90
2018-08-18T05:23:20.836Z,99.90
2018-08-18T05:27:23.554Z,99.90
2018-08-18T05:31:26.251Z,99.90
2018-08-18T05:35:29.001Z,99.90
2018-08-18T05:39:31.728Z,99.90
2018-08-18T05:43:34.465Z,99.90
2018-08-18T05:47:37.258Z,99.90
2018-08-18T05:51:43.771Z,99.90
2018-08-18T05:55:47.530Z,99.90
2018-08-18T05:59:50.406Z,99.90
2018-08-18T06:04:03.760Z,99.90
2018-08-18T06:08:06.626Z,99.90
2018-08-18T06:12:14.930Z,99.90
2018-08-18T06:16:17.595Z,99.90
2018-08-18T06:20:20.376Z,99.90
2018-08-18T06:24:23.008Z,99.90
2018-08-18T06:28:25.890Z,99.90
2018-08-18T06:32:29.304Z,99.90
2018-08-18T06:36:31.913Z,99.90
2018-08-18T06:40:35.160Z,99.90
2018-08-18T06:44:38.150Z,99.90
2018-08-18T06:48:41.296Z,99.90
2018-08-18T06:52:45.380Z,99.90
2018-08-18T06:56:48.199Z,99.90
2018-08-18T07:00:50.823Z,99.90
2018-08-18T07:04:53.439Z,99.90
2018-08-18T07:08:56.069Z,99.90
2018-08-18T07:13:01.625Z,99.90
2018-08-18T07:17:04.347Z,99.90
2018-08-18T07:21:07.022Z,99.90
2018-08-18T07:25:09.783Z,99.90
2018-08-18T07:29:12.742Z,99.90
2018-08-18T07:33:17.084Z,99.90
2018-08-18T07:37:19.823Z,99.90
2018-08-18T07:41:22.473Z,99.90
2018-08-18T07:45:25.338Z,99.90
2018-08-18T07:49:27.974Z,99.90
2018-08-18T07:53:30.622Z,99.90
2018-08-18T07:57:35.622Z,99.90
2018-08-18T08:01:38.267Z,99.90
2018-08-18T08:05:41.189Z,99.90
2018-08-18T08:09:45.085Z,99.90
2018-08-18T08:13:48.204Z,99.90
2018-08-18T08:17:51.259Z,99.90
2018-08-18T08:21:53.929Z,99.90
2018-08-18T08:25:56.723Z,99.90
2018-08-18T08:29:59.310Z,99.90
2018-08-18T08:34:02.017Z,99.90
2018-08-18T08:38:04.708Z,99.90
2018-08-18T08:42:07.415Z,99.90
2018-08-18T08:46:10.055Z,99.90
2018-08-18T08:50:14.199Z,99.90
2018-08-18T08:54:17.956Z,99.90
2018-08-18T08:58:20.703Z,99.90
2018-08-18T09:02:23.487Z,99.90
2018-08-18T09:06:26.225Z,99.90
2018-08-18T09:10:29.166Z,99.90
2018-08-18T09:14:31.870Z,99.90
2018-08-18T09:18:36.874Z,99.90
2018-08-18T09:23:01.388Z,99.90
2018-08-18T09:27:05.264Z,99.90
2018-08-18T09:31:07.921Z,99.90
2018-08-18T09:35:10.557Z,99.90
2018-08-18T09:39:23.689Z,99.90
2018-08-18T09:43:26.676Z,99.90
2018-08-18T09:47:29.425Z,99.90
2018-08-18T09:51:32.123Z,99.90
2018-08-18T09:55:34.901Z,99.90
2018-08-18T09:59:37.716Z,99.90
2018-08-18T10:03:40.396Z,99.10
2018-08-18T10:07:43.160Z,99.60
2018-08-18T10:11:45.826Z,98.50
2018-08-18T10:15:48.397Z,99.20
2018-08-18T10:19:51.061Z,98.60
2018-08-18T10:23:53.727Z,98.20
2018-08-18T10:27:56.449Z,98.30
2018-08-18T10:31:59.679Z,97.90
2018-08-18T10:36:02.741Z,97.50
2018-08-18T10:40:09.602Z,98.50
2018-08-18T10:44:13.827Z,97.10
2018-08-18T10:48:16.454Z,97.90
2018-08-18T10:52:32.279Z,97.30
2018-08-18T10:56:34.963Z,97.70
2018-08-18T11:00:37.789Z,97.20
2018-08-18T11:04:40.432Z,96.10
2018-08-18T11:08:43.345Z,96.40
2018-08-18T11:12:45.988Z,96.80
2018-08-18T11:16:49.569Z,97.00
2018-08-18T11:20:52.228Z,97.90
2018-08-18T11:24:54.865Z,96.80
2018-08-18T11:29:08.921Z,96.40
2018-08-18T11:33:18.293Z,94.80
2018-08-18T11:37:20.898Z,96.70
2018-08-18T11:41:23.706Z,95.20
2018-08-18T11:45:27.516Z,94.60
2018-08-18T11:49:30.730Z,94.90
2018-08-18T11:53:33.609Z,95.10
2018-08-18T11:57:36.470Z,93.60
2018-08-18T12:01:40.283Z,94.10
2018-08-18T12:06:01.793Z,93.40
2018-08-18T12:10:04.651Z,91.80
2018-08-18T12:14:07.307Z,93.60
2018-08-18T12:18:09.996Z,93.50
2018-08-18T12:22:12.693Z,92.60
2018-08-18T12:26:18.578Z,92.50
2018-08-18T12:30:29.180Z,94.10
2018-08-18T12:34:32.054Z,93.10
2018-08-18T12:38:35.032Z,93.00
2018-08-18T12:42:37.943Z,93.10
2018-08-18T12:46:46.212Z,91.80
2018-08-18T12:50:48.931Z,90.20
2018-08-18T12:54:51.794Z,90.40
2018-08-18T12:58:54.643Z,91.10
2018-08-18T13:02:57.245Z,90.10
2018-08-18T13:06:59.852Z,90.90
2018-08-18T13:11:02.583Z,91.80
2018-08-18T13:15:05.376Z,91.20
2018-08-18T13:19:08.038Z,91.60
2018-08-18T13:23:11.305Z,91.60
2018-08-18T13:27:14.318Z,92.40
2018-08-18T13:31:17.139Z,90.50
2018-08-18T13:35:19.915Z,89.60
2018-08-18T13:39:22.599Z,91.10
2018-08-18T13:43:41.356Z,89.60
2018-08-18T13:47:44.148Z,90.10
2018-08-18T13:51:46.989Z,90.60
2018-08-18T13:55:49.951Z,89.80
2018-08-18T13:59:52.682Z,90.50
2018-08-18T14:03:55.313Z,90.60
2018-08-18T14:08:00.226Z,90.80
2018-08-18T14:12:08.770Z,91.70
2018-08-18T14:16:12.055Z,90.80
2018-08-18T14:20:14.737Z,90.90
2018-08-18T14:24:21.015Z,88.10
2018-08-18T14:28:23.778Z,89.00
2018-08-18T14:32:28.140Z,89.40
2018-08-18T14:36:30.842Z,90.00
2018-08-18T14:40:33.555Z,89.70
2018-08-18T14:44:37.066Z,91.30
2018-08-18T14:48:39.764Z,91.30
2018-08-18T14:52:43.929Z,91.30
2018-08-18T14:56:46.594Z,93.20
2018-08-18T15:00:50.377Z,93.20
2018-08-18T15:04:53.178Z,92.80
2018-08-18T15:08:56.073Z,92.60
2018-08-18T15:12:59.685Z,91.90
2018-08-18T15:17:02.473Z,91.90
2018-08-18T15:21:05.493Z,92.50
2018-08-18T15:25:08.315Z,93.20
2018-08-18T15:29:15.623Z,93.20
2018-08-18T15:33:20.335Z,92.40
2018-08-18T15:37:22.992Z,93.20
2018-08-18T15:41:25.667Z,93.10
2018-08-18T15:45:29.037Z,93.30
2018-08-18T15:49:31.692Z,93.10
2018-08-18T15:53:54.107Z,93.00
2018-08-18T15:57:56.847Z,93.10
2018-08-18T16:01:59.502Z,93.70
2018-08-18T16:06:02.206Z,93.60
2018-08-18T16:10:04.841Z,93.70
2018-08-18T16:14:07.740Z,94.00
2018-08-18T16:18:10.329Z,93.60
2018-08-18T16:22:12.989Z,94.10
2018-08-18T16:26:15.607Z,94.10
2018-08-18T16:30:18.959Z,96.00
2018-08-18T16:34:21.557Z,96.90
2018-08-18T16:38:35.168Z,97.90
2018-08-18T16:42:37.882Z,98.80
2018-08-18T16:46:41.483Z,99.10
2018-08-18T16:50:44.370Z,99.90
2018-08-18T16:54:47.026Z,99.90
2018-08-18T16:58:51.083Z,99.90
2018-08-18T17:02:53.772Z,99.90
2018-08-18T17:06:56.581Z,99.90
2018-08-18T17:10:59.316Z,99.90
2018-08-18T17:15:02.565Z,99.90
2018-08-18T17:19:05.217Z,99.90
2018-08-18T17:23:07.800Z,99.90
2018-08-18T17:27:10.499Z,99.90
2018-08-18T17:31:13.289Z,99.90
2018-08-18T17:35:15.930Z,99.90
2018-08-18T17:39:18.634Z,99.90
2018-08-18T17:43:21.395Z,99.90
2018-08-18T17:47:24.072Z,99.90
2018-08-18T17:51:27.125Z,99.90
2018-08-18T17:55:29.746Z,99.90
2018-08-18T17:59:33.247Z,99.90
2018-08-18T18:03:35.848Z,99.90
2018-08-18T18:07:38.456Z,99.90
2018-08-18T18:11:41.062Z,99.90
2018-08-18T18:15:44.833Z,99.90
2018-08-18T18:19:47.637Z,99.90
2018-08-18T18:23:50.287Z,99.90
2018-08-18T18:27:52.954Z,99.90
2018-08-18T18:31:56.313Z,99.90
2018-08-18T18:35:59.245Z,99.90
2018-08-18T18:40:04.329Z,99.90
2018-08-18T18:44:07.053Z,99.90
2018-08-18T18:48:12.657Z,99.90
2018-08-18T18:52:16.990Z,99.90
2018-08-18T18:56:19.894Z,99.90
2018-08-18T19:00:22.579Z,99.90
2018-08-18T19:04:25.264Z,99.90
2018-08-18T19:08:27.993Z,99.90
2018-08-18T19:12:30.730Z,99.90
2018-08-18T19:16:33.371Z,99.90
2018-08-18T19:20:36.009Z,99.90
2018-08-18T19:24:38.675Z,99.90
2018-08-18T19:28:41.770Z,99.90
2018-08-18T19:32:44.477Z,99.90
2018-08-18T19:36:57.132Z,99.90
2018-08-18T19:40:59.760Z,99.90
2018-08-18T19:45:02.554Z,99.90
2018-08-18T19:49:05.272Z,99.90
2018-08-18T19:53:11.057Z,99.90
2018-08-18T19:57:17.349Z,99.90
2018-08-18T20:01:20.134Z,99.90
2018-08-18T20:05:23.035Z,99.90
2018-08-18T20:09:25.649Z,99.90
2018-08-18T20:13:29.829Z,99.90
2018-08-18T20:17:32.456Z,99.90
2018-08-18T20:21:35.849Z,99.90
2018-08-18T20:25:38.755Z,99.90
2018-08-18T20:29:41.789Z,99.90
2018-08-18T20:33:45.649Z,99.90
2018-08-18T20:37:48.287Z,99.90
2018-08-18T20:41:51.106Z,99.90
2018-08-18T20:45:53.891Z,99.90
2018-08-18T20:49:57.225Z,99.90
2018-08-18T20:54:00.713Z,99.90
2018-08-18T20:58:03.444Z,99.90
2018-08-18T21:02:06.592Z,99.90
2018-08-18T21:06:09.260Z,99.90
2018-08-18T21:10:12.581Z,99.90
2018-08-18T21:14:15.216Z,99.90
2018-08-18T21:18:19.277Z,99.90
2018-08-18T21:22:25.367Z,99.90
2018-08-18T21:26:28.276Z,99.90
2018-08-18T21:30:30.844Z,99.90
2018-08-18T21:34:43.708Z,99.90
2018-08-18T21:38:46.500Z,99.90
2018-08-18T21:42:49.165Z,99.90
2018-08-18T21:46:51.911Z,99.90
2018-08-18T21:50:54.521Z,99.90
2018-08-18T21:54:58.290Z,99.90
2018-08-18T21:59:01.050Z,99.90
2018-08-18T22:03:03.829Z,99.90
2018-08-18T22:07:06.482Z,99.90
2018-08-18T22:11:13.521Z,99.90
2018-08-18T22:15:19.719Z,99.90
2018-08-18T22:19:22.519Z,99.90
2018-08-18T22:23:25.778Z,99.90
2018-08-18T22:27:28.485Z,99.90
2018-08-18T22:31:31.972Z,99.90
2018-08-18T22:35:37.575Z,99.90
2018-08-18T22:39:40.421Z,99.90
2018-08-18T22:43:43.138Z,99.90
2018-08-18T22:47:45.788Z,99.90
2018-08-18T22:51:48.453Z,99.90
2018-08-18T22:55:51.051Z,99.90
2018-08-18T22:59:53.792Z,99.90
2018-08-18T23:03:56.387Z,99.90
2018-08-18T23:07:58.982Z,99.90
2018-08-18T23:12:03.415Z,99.90
2018-08-18T23:16:06.001Z,99.90
2018-08-18T23:20:08.615Z,99.90
2018-08-18T23:24:24.466Z,99.90
2018-08-18T23:28:27.054Z,99.90
2018-08-18T23:32:36.342Z,99.90
2018-08-18T23:36:38.876Z,99.90
2018-08-18T23:40:41.475Z,99.90
2018-08-18T23:44:44.101Z,99.90
2018-08-18T23:48:46.702Z,99.90
2018-08-18T23:52:58.915Z,99.90
2018-08-18T23:57:01.491Z,99.90
